Time;durP1;ratioP1;P1;durP2;ratioP2;P2;SDS_P1;SDS_P2;PMS_P1;PMS_P2;Temp;Humidity;BMP_temperature;BMP_pressure;BME280_temperature;BME280_humidity;BME280_pressure;Samples;Min_cycle;Max_cycle;Signal;HPM_P1;HPM_P2
2021/10/10 00:00:30;;;;;;;29.00;16.17;;;;;;;11.69;50.65;96193.22;4970705;28;20030;-64
2021/10/10 00:02:55;;;;;;;25.02;17.13;;;;;;;11.64;51.78;96196.72;4988348;28;20042;-64
2021/10/10 00:05:20;;;;;;;23.70;16.10;;;;;;;11.52;51.65;96195.56;4990370;28;20022;-65
2021/10/10 00:07:46;;;;;;;36.25;16.90;;;;;;;11.48;51.48;96207.84;4988197;28;20046;-64
2021/10/10 00:10:13;;;;;;;24.38;16.25;;;;;;;11.62;51.74;96216.75;4974918;28;20505;-64
2021/10/10 00:12:39;;;;;;;33.72;17.63;;;;;;;11.35;52.35;96217.28;4972747;28;20061;-64
2021/10/10 00:15:10;;;;;;;26.48;16.30;;;;;;;11.48;52.19;96210.50;4980368;28;20046;-64
2021/10/10 00:17:35;;;;;;;22.48;17.42;;;;;;;11.40;52.21;96217.22;4988648;28;20051;-64
2021/10/10 00:20:01;;;;;;;26.33;17.95;;;;;;;11.41;51.63;96202.84;4989132;28;20137;-64
2021/10/10 00:22:27;;;;;;;28.42;17.65;;;;;;;11.44;51.57;96210.28;5003475;28;20054;-64
2021/10/10 00:24:53;;;;;;;24.27;18.23;;;;;;;11.44;51.54;96215.59;4979684;28;20093;-64
2021/10/10 00:27:18;;;;;;;37.63;20.08;;;;;;;11.42;51.19;96207.91;4970386;28;20046;-64
2021/10/10 00:29:43;;;;;;;41.38;20.17;;;;;;;11.34;51.70;96200.50;4979577;28;20026;-64
2021/10/10 00:32:09;;;;;;;27.25;19.52;;;;;;;11.37;51.33;96209.81;4989954;28;20023;-64
2021/10/10 00:34:34;;;;;;;35.65;22.17;;;;;;;11.35;51.36;96203.97;4987832;28;20041;-64
2021/10/10 00:36:59;;;;;;;32.70;19.25;;;;;;;11.30;51.87;96204.81;4988043;28;20031;-64
2021/10/10 00:39:25;;;;;;;30.80;20.55;;;;;;;11.26;52.01;96187.81;4982272;28;20054;-65
2021/10/10 00:41:50;;;;;;;34.60;20.25;;;;;;;11.23;51.83;96192.91;4989482;28;20049;-64
2021/10/10 00:44:16;;;;;;;34.40;20.33;;;;;;;11.26;51.68;96202.97;4981441;28;20456;-64
2021/10/10 00:46:41;;;;;;;32.92;20.73;;;;;;;11.20;52.31;96200.38;4987803;28;20062;-64
2021/10/10 00:49:07;;;;;;;31.88;20.92;;;;;;;10.95;52.47;96197.94;4987220;28;20063;-65
2021/10/10 00:51:34;;;;;;;31.00;20.42;;;;;;;10.98;52.26;96184.09;4987852;28;20046;-64
2021/10/10 00:54:04;;;;;;;33.40;20.20;;;;;;;10.52;53.76;96197.78;4987747;28;20138;-64
2021/10/10 00:56:31;;;;;;;31.20;20.42;;;;;;;10.44;54.23;96192.25;4969891;28;20380;-64
2021/10/10 00:58:57;;;;;;;31.17;19.95;;;;;;;10.61;53.96;96205.97;4990647;28;20560;-65
2021/10/10 01:01:23;;;;;;;41.50;23.02;;;;;;;10.67;52.98;96199.53;4986761;28;20116;-64
2021/10/10 01:03:48;;;;;;;36.30;20.08;;;;;;;10.76;53.03;96199.72;4986130;28;20668;-65
2021/10/10 01:06:15;;;;;;;38.80;22.23;;;;;;;10.70;52.45;96193.66;4987948;28;20219;-63
2021/10/10 01:08:40;;;;;;;37.25;23.88;;;;;;;10.72;52.62;96194.16;4987365;28;20054;-64
2021/10/10 01:11:06;;;;;;;36.50;22.30;;;;;;;10.76;52.58;96197.06;4973083;28;20027;-64
2021/10/10 01:13:32;;;;;;;33.95;21.17;;;;;;;10.80;52.17;96201.56;4971440;28;20081;-64
2021/10/10 01:15:57;;;;;;;35.95;21.63;;;;;;;10.56;52.79;96193.50;4961166;28;20039;-64
2021/10/10 01:18:24;;;;;;;40.85;22.33;;;;;;;10.69;53.21;96202.69;4962213;28;20038;-64
2021/10/10 01:20:52;;;;;;;37.95;22.55;;;;;;;10.48;53.40;96199.38;4987357;28;20034;-66
2021/10/10 01:23:19;;;;;;;32.05;21.88;;;;;;;10.16;53.75;96202.50;5004199;28;20022;-65
2021/10/10 01:25:44;;;;;;;43.33;22.90;;;;;;;10.38;54.04;96194.13;4977495;28;20039;-64
2021/10/10 01:28:10;;;;;;;39.60;24.05;;;;;;;10.54;53.57;96194.81;4958682;28;20350;-64
2021/10/10 01:30:36;;;;;;;34.58;21.33;;;;;;;10.57;53.50;96195.06;4955945;28;20023;-63
2021/10/10 01:33:04;;;;;;;43.03;24.88;;;;;;;10.49;52.81;96181.56;4955967;28;20046;-64
2021/10/10 01:35:30;;;;;;;49.67;25.35;;;;;;;10.50;53.35;96186.63;4973618;28;20030;-65
2021/10/10 01:37:55;;;;;;;43.90;24.73;;;;;;;10.56;53.09;96188.16;4971662;28;20126;-64
2021/10/10 01:40:21;;;;;;;36.55;22.00;;;;;;;10.65;52.56;96194.50;4970781;28;20510;-65
2021/10/10 01:42:46;;;;;;;40.78;22.75;;;;;;;10.45;53.29;96193.84;4977906;28;20088;-64
2021/10/10 01:45:20;;;;;;;47.10;22.80;;;;;;;10.30;53.51;96194.75;4988576;28;20035;-64
2021/10/10 01:47:45;;;;;;;37.50;22.23;;;;;;;9.98;55.74;96192.47;4990957;28;20033;-64
2021/10/10 01:50:11;;;;;;;48.10;23.80;;;;;;;10.21;54.03;96199.81;4992434;28;20030;-64
2021/10/10 01:52:40;;;;;;;40.83;23.92;;;;;;;10.08;54.79;96187.09;4990764;28;20030;-64
2021/10/10 01:55:06;;;;;;;44.35;23.15;;;;;;;10.21;53.62;96173.22;4983959;28;20035;-64
2021/10/10 01:57:31;;;;;;;37.33;23.05;;;;;;;10.34;53.50;96185.94;4971044;28;20034;-64
2021/10/10 01:59:56;;;;;;;41.83;22.80;;;;;;;10.38;53.10;96186.94;4970963;28;20038;-64
2021/10/10 02:02:22;;;;;;;43.45;24.95;;;;;;;10.31;53.01;96170.53;4972213;28;20389;-65
2021/10/10 02:04:48;;;;;;;44.70;25.20;;;;;;;10.36;53.16;96175.81;4987105;28;20050;-64
2021/10/10 02:07:14;;;;;;;42.65;24.75;;;;;;;10.24;52.96;96159.41;4990676;28;20150;-64
2021/10/10 02:09:41;;;;;;;52.10;27.17;;;;;;;10.31;53.19;96167.88;4987707;28;20555;-64
2021/10/10 02:12:07;;;;;;;33.92;23.02;;;;;;;10.36;52.74;96180.34;4970850;28;20045;-64
2021/10/10 02:14:34;;;;;;;49.08;26.63;;;;;;;10.32;52.48;96180.09;4970730;28;20433;-63
2021/10/10 02:17:00;;;;;;;35.08;22.52;;;;;;;10.12;52.87;96172.19;4973096;28;20388;-63
2021/10/10 02:19:25;;;;;;;43.55;25.60;;;;;;;10.26;52.76;96177.75;4985621;28;20045;-64
2021/10/10 02:21:50;;;;;;;37.67;23.30;;;;;;;10.20;52.68;96171.63;4989455;28;20069;-64
2021/10/10 02:24:16;;;;;;;35.97;22.00;;;;;;;10.19;53.09;96175.38;4990384;28;20034;-63
2021/10/10 02:26:42;;;;;;;34.80;23.45;;;;;;;10.21;52.80;96172.44;4974093;28;20051;-63
2021/10/10 02:29:08;;;;;;;52.83;27.38;;;;;;;10.09;52.34;96156.81;4972221;28;20026;-64
2021/10/10 02:31:33;;;;;;;45.05;25.02;;;;;;;10.06;52.36;96155.50;4987063;28;20112;-64
2021/10/10 02:33:59;;;;;;;43.55;23.40;;;;;;;9.96;52.70;96141.47;4988607;28;20038;-63
2021/10/10 02:36:24;;;;;;;44.78;23.27;;;;;;;10.10;52.79;96175.16;4989538;28;20042;-63
2021/10/10 02:38:49;;;;;;;40.03;22.80;;;;;;;10.06;52.37;96163.47;5005144;28;20050;-64
2021/10/10 02:41:15;;;;;;;47.78;24.48;;;;;;;9.99;52.01;96162.19;4979710;28;20034;-63
2021/10/10 02:43:40;;;;;;;47.90;24.52;;;;;;;10.00;51.91;96174.41;4953225;28;20608;-63
2021/10/10 02:46:06;;;;;;;47.60;25.13;;;;;;;9.98;52.33;96165.91;4951198;28;20149;-64
2021/10/10 02:48:31;;;;;;;51.53;28.83;;;;;;;9.85;52.47;96154.03;4951184;28;20134;-63
2021/10/10 02:50:56;;;;;;;43.53;23.45;;;;;;;9.84;52.70;96161.22;4950916;28;20043;-63
2021/10/10 02:53:22;;;;;;;40.25;24.10;;;;;;;9.76;52.40;96151.13;4952842;28;20049;-63
2021/10/10 02:55:47;;;;;;;37.85;22.48;;;;;;;9.85;52.13;96162.78;4967348;28;20058;-64
2021/10/10 02:58:12;;;;;;;43.72;25.52;;;;;;;9.84;52.21;96157.75;4970130;28;20042;-63
2021/10/10 03:00:38;;;;;;;50.95;24.30;;;;;;;9.81;52.46;96152.97;4988895;28;20122;-63
2021/10/10 03:03:03;;;;;;;47.75;24.80;;;;;;;9.78;52.54;96141.06;4965951;28;20434;-63
2021/10/10 03:05:28;;;;;;;47.35;27.17;;;;;;;9.80;52.97;96162.03;4952821;28;20055;-63
2021/10/10 03:07:54;;;;;;;49.55;25.15;;;;;;;9.79;53.44;96155.91;4969846;28;20047;-63
2021/10/10 03:10:19;;;;;;;47.70;26.38;;;;;;;9.81;53.44;96155.63;4969264;28;20047;-64
2021/10/10 03:12:45;;;;;;;45.13;26.38;;;;;;;9.60;53.51;96134.47;4968167;28;20066;-64
2021/10/10 03:15:10;;;;;;;62.60;32.30;;;;;;;9.74;54.05;96140.00;4970516;28;20031;-63
2021/10/10 03:17:35;;;;;;;46.92;28.23;;;;;;;9.81;53.86;96147.66;4989161;28;20030;-63
2021/10/10 03:20:01;;;;;;;52.70;29.77;;;;;;;9.85;54.15;96154.03;5005815;28;20471;-63
2021/10/10 03:22:26;;;;;;;55.55;30.02;;;;;;;9.87;53.35;96152.66;4989067;28;20096;-63
2021/10/10 03:24:52;;;;;;;55.08;30.75;;;;;;;9.81;53.65;96143.13;4989182;28;20460;-63
2021/10/10 03:27:17;;;;;;;63.28;33.85;;;;;;;9.84;53.95;96157.75;4969843;28;20051;-63
2021/10/10 03:29:42;;;;;;;66.00;33.38;;;;;;;9.80;54.56;96149.53;4975920;28;20101;-63
2021/10/10 03:32:08;;;;;;;67.72;33.75;;;;;;;9.79;53.83;96142.63;4952066;28;20462;-63
2021/10/10 03:34:33;;;;;;;61.13;32.10;;;;;;;9.88;54.36;96145.53;4982326;28;20070;-63
2021/10/10 03:36:59;;;;;;;69.03;34.40;;;;;;;9.92;53.24;96149.19;4988862;28;20659;-63
2021/10/10 03:39:24;;;;;;;65.75;33.17;;;;;;;9.76;53.44;96131.75;4988663;28;20076;-63
2021/10/10 03:41:49;;;;;;;64.65;32.50;;;;;;;9.79;53.90;96142.63;4979972;28;20395;-63
2021/10/10 03:44:15;;;;;;;72.07;35.63;;;;;;;9.71;54.75;96145.06;4972922;28;20066;-63
2021/10/10 03:46:40;;;;;;;65.15;34.10;;;;;;;9.69;54.71;96148.00;4969195;28;20386;-63
2021/10/10 03:49:05;;;;;;;68.03;35.75;;;;;;;9.52;54.86;96144.88;4968717;28;20134;-63
2021/10/10 03:51:31;;;;;;;71.07;34.45;;;;;;;9.63;54.98;96141.13;4969342;28;20046;-63
2021/10/10 03:56:39;;;;;;;60.70;34.63;;;;;;;9.77;54.91;96146.63;4976588;28;20089;-63
2021/10/10 03:59:05;;;;;;;67.72;36.00;;;;;;;9.65;54.94;96131.00;4970420;28;20477;-63
2021/10/10 04:01:30;;;;;;;66.47;34.83;;;;;;;9.78;54.88;96146.38;4972028;28;20042;-63
2021/10/10 04:03:56;;;;;;;69.65;35.50;;;;;;;9.68;54.76;96127.03;4957606;28;20036;-63
2021/10/10 04:06:21;;;;;;;78.40;38.25;;;;;;;9.67;54.52;96128.88;4955982;28;20370;-63
2021/10/10 04:08:46;;;;;;;58.17;33.30;;;;;;;9.66;54.93;96135.25;4965614;28;20123;-63
2021/10/10 04:11:12;;;;;;;78.53;36.70;;;;;;;9.68;54.23;96129.69;4951164;28;20051;-64
2021/10/10 04:13:40;;;;;;;87.18;41.05;;;;;;;9.74;54.50;96133.91;4965854;28;20054;-63
2021/10/10 04:16:05;;;;;;;54.58;32.67;;;;;;;9.71;54.30;96139.75;4972924;28;20118;-63
2021/10/10 04:18:31;;;;;;;78.70;38.17;;;;;;;9.73;54.47;96137.63;4988159;28;20125;-63
2021/10/10 04:20:58;;;;;;;73.30;34.05;;;;;;;9.67;54.17;96128.88;4988153;28;20112;-63
2021/10/10 04:23:24;;;;;;;70.97;36.40;;;;;;;9.63;54.50;96122.53;5005328;28;20721;-64
2021/10/10 04:25:49;;;;;;;79.63;39.22;;;;;;;9.54;54.31;96105.56;4982182;28;20045;-63
2021/10/10 04:28:14;;;;;;;70.03;34.85;;;;;;;9.57;53.67;96107.66;4976794;28;20134;-63
2021/10/10 04:30:40;;;;;;;79.55;39.25;;;;;;;9.58;54.33;96125.22;4976223;28;20039;-63
2021/10/10 04:33:05;;;;;;;74.63;36.05;;;;;;;9.56;53.91;96124.66;4984485;28;20030;-63
2021/10/10 04:35:31;;;;;;;68.05;35.70;;;;;;;9.63;53.66;96136.59;4989916;28;20030;-62
2021/10/10 04:37:56;;;;;;;76.68;35.88;;;;;;;9.60;53.52;96134.47;4988090;28;20065;-63
2021/10/10 04:40:21;;;;;;;73.47;35.83;;;;;;;9.46;53.87;96122.06;4986558;28;20042;-63
2021/10/10 04:42:47;;;;;;;67.57;34.38;;;;;;;9.47;53.72;96134.25;4976162;28;20065;-63
2021/10/10 04:45:12;;;;;;;63.00;35.13;;;;;;;9.51;53.84;96143.28;4984102;28;20124;-63
2021/10/10 04:47:38;;;;;;;65.18;33.28;;;;;;;9.39;53.58;96114.41;4987967;28;20166;-63
2021/10/10 04:50:04;;;;;;;68.97;35.00;;;;;;;9.41;53.92;96122.88;4989390;28;20109;-63
2021/10/10 04:52:30;;;;;;;74.30;37.00;;;;;;;9.46;53.92;96133.47;4987774;28;20039;-63
2021/10/10 04:54:56;;;;;;;65.20;33.85;;;;;;;9.46;53.41;96130.81;4987611;28;20043;-62
2021/10/10 04:57:21;;;;;;;87.53;41.63;;;;;;;9.43;53.54;96123.41;4982980;28;20045;-63
2021/10/10 04:59:50;;;;;;;65.93;33.72;;;;;;;9.34;53.74;96128.47;4950038;28;20091;-62
2021/10/10 05:02:19;;;;;;;64.63;34.55;;;;;;;9.14;53.86;96107.31;4954948;28;20082;-63
2021/10/10 05:04:45;;;;;;;59.28;32.85;;;;;;;9.20;53.80;96114.19;4970409;28;20043;-63
2021/10/10 05:07:10;;;;;;;78.88;38.10;;;;;;;9.25;53.88;96137.28;4970834;28;20507;-63
2021/10/10 05:09:35;;;;;;;80.97;38.15;;;;;;;9.27;53.67;96127.19;4986882;28;20086;-63
2021/10/10 05:12:01;;;;;;;70.13;36.35;;;;;;;9.25;53.85;96130.09;4971839;28;20062;-63
2021/10/10 05:14:26;;;;;;;86.50;40.20;;;;;;;9.24;54.13;96127.72;4975461;28;20081;-63
2021/10/10 05:16:52;;;;;;;78.82;37.13;;;;;;;9.22;53.99;96128.00;4976997;28;20034;-62
2021/10/10 05:19:17;;;;;;;76.18;38.75;;;;;;;9.25;54.08;96130.09;4957822;28;20409;-63
2021/10/10 05:21:43;;;;;;;72.55;37.05;;;;;;;9.33;53.83;96142.81;4962206;28;20090;-70
2021/10/10 05:24:08;;;;;;;73.63;38.38;;;;;;;9.19;53.69;96125.09;4970422;28;20130;-62
2021/10/10 05:26:33;;;;;;;67.18;35.25;;;;;;;9.26;53.67;96136.19;4971355;28;20051;-64
2021/10/10 05:28:59;;;;;;;93.63;41.65;;;;;;;9.32;54.15;96143.91;4973413;28;20488;-66
2021/10/10 05:31:24;;;;;;;80.68;39.55;;;;;;;9.23;54.10;96131.44;4977565;28;20475;-66
2021/10/10 05:33:49;;;;;;;71.47;37.72;;;;;;;9.36;54.00;96149.44;4991219;28;20070;-63
2021/10/10 05:36:15;;;;;;;75.82;40.15;;;;;;;9.14;54.60;96144.47;4991519;28;20062;-63
2021/10/10 05:38:40;;;;;;;86.63;41.72;;;;;;;9.26;54.91;96136.19;4991054;28;20088;-63
2021/10/10 05:41:05;;;;;;;76.82;38.78;;;;;;;9.33;54.44;96147.34;4988747;28;20358;-65
2021/10/10 05:43:31;;;;;;;76.35;38.85;;;;;;;9.13;55.43;96147.41;4955696;28;20047;-64
2021/10/10 05:45:57;;;;;;;81.43;39.13;;;;;;;9.41;55.00;96153.94;4963632;28;20451;-64
2021/10/10 05:48:22;;;;;;;73.63;37.47;;;;;;;9.43;54.74;96144.66;4978575;28;20096;-66
2021/10/10 05:50:48;;;;;;;75.88;38.80;;;;;;;9.47;54.10;96152.84;4990042;28;20026;-65
2021/10/10 05:53:13;;;;;;;64.97;35.70;;;;;;;9.43;54.50;96149.19;4994182;28;20501;-65
2021/10/10 05:55:40;;;;;;;74.18;39.15;;;;;;;9.41;54.79;96152.09;4990882;28;20444;-62
2021/10/10 05:58:09;;;;;;;68.18;34.83;;;;;;;9.64;54.02;96156.00;4971663;28;20042;-63
2021/10/10 06:00:34;;;;;;;64.50;35.45;;;;;;;9.63;53.93;96157.06;4971480;28;20511;-70
2021/10/10 06:03:00;;;;;;;78.05;39.97;;;;;;;9.71;54.22;96145.84;4971643;28;20129;-67
2021/10/10 06:05:25;;;;;;;64.28;35.20;;;;;;;9.91;53.66;96166.22;4988192;28;20023;-65
2021/10/10 06:07:51;;;;;;;61.03;35.58;;;;;;;9.89;53.53;96152.41;4986006;28;20051;-63
2021/10/10 06:10:16;;;;;;;66.10;36.17;;;;;;;9.97;53.57;96167.78;4970542;28;20054;-63
2021/10/10 06:12:42;;;;;;;50.17;31.30;;;;;;;9.95;53.37;96151.31;4969333;28;20039;-63
2021/10/10 06:15:08;;;;;;;58.88;31.92;;;;;;;10.15;53.02;96161.81;4966125;28;20044;-63
2021/10/10 06:17:35;;;;;;;61.10;34.72;;;;;;;10.19;53.56;96162.06;4951751;28;20027;-63
2021/10/10 06:20:04;;;;;;;72.50;39.78;;;;;;;10.14;53.70;96159.44;4953295;28;20028;-64
2021/10/10 06:22:29;;;;;;;75.78;37.95;;;;;;;10.13;53.78;96155.19;4936060;28;20413;-65
2021/10/10 06:24:55;;;;;;;74.05;37.42;;;;;;;10.33;53.69;96170.22;4941726;28;20027;-64
2021/10/10 06:27:20;;;;;;;59.50;33.08;;;;;;;10.49;52.93;96170.91;4957154;28;20475;-63
2021/10/10 06:29:47;;;;;;;69.47;36.05;;;;;;;10.57;53.32;96173.00;4990775;28;20046;-64
2021/10/10 06:32:12;;;;;;;61.97;36.78;;;;;;;10.59;53.15;96168.97;4983942;28;20022;-63
2021/10/10 06:34:38;;;;;;;53.92;30.10;;;;;;;10.66;52.20;96163.34;4989961;28;20038;-64
2021/10/10 06:37:03;;;;;;;40.03;23.65;;;;;;;10.47;51.10;96179.19;5005114;28;20503;-63
2021/10/10 06:39:29;;;;;;;42.28;25.52;;;;;;;10.76;52.04;96171.25;4989637;28;20053;-64
2021/10/10 06:41:54;;;;;;;34.95;23.42;;;;;;;10.48;51.13;96148.84;4992839;28;20051;-65
2021/10/10 06:44:20;;;;;;;34.17;21.70;;;;;;;10.26;52.47;96181.19;4972965;28;20031;-63
2021/10/10 06:46:45;;;;;;;33.65;24.42;;;;;;;10.15;52.51;96161.81;4981767;28;20042;-62
2021/10/10 06:49:12;;;;;;;41.28;25.88;;;;;;;10.68;52.17;96175.28;4989499;28;20544;-70
2021/10/10 06:51:37;;;;;;;34.15;22.05;;;;;;;10.85;51.83;96180.22;4990580;28;20047;-72
2021/10/10 06:54:03;;;;;;;36.13;23.95;;;;;;;10.58;51.86;96166.59;4988597;28;20374;-71
2021/10/10 06:56:28;;;;;;;37.08;25.20;;;;;;;10.92;51.92;96172.69;4986883;28;20052;-71
2021/10/10 06:58:54;;;;;;;41.58;25.52;;;;;;;10.82;51.35;96164.00;4950764;28;20035;-73
2021/10/10 07:01:19;;;;;;;33.28;23.90;;;;;;;11.06;51.40;96169.38;4964962;28;20058;-72
2021/10/10 07:03:44;;;;;;;36.20;25.10;;;;;;;10.96;51.37;96156.19;4970427;28;20039;-72
2021/10/10 07:06:10;;;;;;;37.20;24.08;;;;;;;11.10;50.92;96165.06;4985647;28;20041;-75
2021/10/10 07:08:35;;;;;;;35.30;22.25;;;;;;;11.06;50.65;96146.22;4984829;28;20481;-69
2021/10/10 07:11:01;;;;;;;31.35;23.40;;;;;;;11.30;51.70;96175.50;4971535;28;20106;-62
2021/10/10 07:13:26;;;;;;;31.30;23.02;;;;;;;11.48;51.80;96176.66;4954174;28;20059;-60
2021/10/10 07:15:54;;;;;;;35.08;22.08;;;;;;;11.72;50.51;96176.66;4965261;28;20042;-62
2021/10/10 07:18:25;;;;;;;29.33;21.17;;;;;;;11.61;49.73;96180.50;5003008;28;20045;-64
2021/10/10 07:21:00;;;;;;;27.13;19.88;;;;;;;11.69;49.55;96169.22;4985945;28;20054;-64
2021/10/10 07:25:59;;;;;;;34.47;20.52;;;;;;;12.14;48.31;96191.06;4994646;28;20512;-71
2021/10/10 07:28:25;;;;;;;32.72;21.27;;;;;;;12.00;48.88;96184.84;4975801;28;20109;-66
2021/10/10 07:30:51;;;;;;;32.92;21.60;;;;;;;12.14;49.08;96181.19;4980938;28;20035;-68
2021/10/10 07:33:18;;;;;;;31.75;21.75;;;;;;;12.05;48.86;96172.25;4955810;28;20652;-65
2021/10/10 07:35:43;;;;;;;33.42;21.55;;;;;;;12.39;48.36;96185.38;4969731;28;20038;-66
2021/10/10 07:38:09;;;;;;;30.98;20.60;;;;;;;12.51;47.93;96190.28;4971492;28;20026;-66
2021/10/10 07:40:34;;;;;;;31.10;20.10;;;;;;;12.47;47.04;96189.25;4953198;28;20041;-65
2021/10/10 07:43:00;;;;;;;35.05;19.90;;;;;;;12.74;47.45;96186.72;4965538;28;20139;-62
2021/10/10 07:45:26;;;;;;;27.15;19.83;;;;;;;12.66;47.14;96187.38;4962116;28;20070;-70
2021/10/10 07:47:52;;;;;;;26.42;19.05;;;;;;;12.63;47.11;96163.91;4948941;28;20074;-69
2021/10/10 07:50:20;;;;;;;22.98;17.70;;;;;;;12.90;46.69;96189.94;4951831;28;20062;-70
2021/10/10 07:52:46;;;;;;;27.23;19.50;;;;;;;12.95;46.48;96176.50;4982461;28;20047;-68
2021/10/10 07:55:12;;;;;;;25.55;18.75;;;;;;;12.67;46.48;96193.50;4956252;28;20038;-69
2021/10/10 07:57:39;;;;;;;30.13;18.63;;;;;;;12.96;46.13;96198.63;4949544;28;20094;-68
2021/10/10 08:00:05;;;;;;;25.27;18.73;;;;;;;13.13;46.44;96192.75;4949710;28;20062;-75
2021/10/10 08:02:31;;;;;;;22.80;18.27;;;;;;;12.97;46.55;96184.19;4966267;28;20062;-70
2021/10/10 08:04:57;;;;;;;26.23;18.50;;;;;;;12.89;45.60;96180.31;4968713;28;20035;-66
2021/10/10 08:07:25;;;;;;;24.83;17.80;;;;;;;13.05;46.22;96190.72;4954385;28;20042;-70
2021/10/10 08:09:51;;;;;;;24.50;18.02;;;;;;;13.16;46.21;96186.81;4959763;28;20110;-66
2021/10/10 08:12:16;;;;;;;25.08;18.70;;;;;;;13.31;45.70;96186.56;4972910;28;20456;-68
2021/10/10 08:14:41;;;;;;;28.52;19.08;;;;;;;13.35;45.68;96198.22;4968875;28;20023;-68
2021/10/10 08:17:07;;;;;;;26.52;17.90;;;;;;;12.99;45.17;96163.31;4970924;28;20023;-71
2021/10/10 08:19:32;;;;;;;25.20;18.58;;;;;;;13.29;45.27;96175.38;4984946;28;20104;-68
2021/10/10 08:21:58;;;;;;;26.80;18.30;;;;;;;13.49;45.32;96190.25;4988254;28;20069;-73
2021/10/10 08:24:23;;;;;;;30.45;19.33;;;;;;;13.44;44.92;96193.00;4987782;28;20038;-63
2021/10/10 08:26:50;;;;;;;27.05;19.00;;;;;;;13.29;45.12;96183.38;4986243;28;20022;-67
2021/10/10 08:29:16;;;;;;;26.70;18.08;;;;;;;13.55;45.12;96193.59;4971633;28;20023;-66
2021/10/10 08:31:42;;;;;;;24.23;18.83;;;;;;;13.66;45.07;96203.00;4968395;28;20381;-65
2021/10/10 08:34:08;;;;;;;26.92;18.02;;;;;;;13.43;44.60;96192.22;4980353;28;20034;-65
2021/10/10 08:36:34;;;;;;;27.15;18.88;;;;;;;13.28;44.92;96184.47;4988098;28;20082;-67
2021/10/10 08:38:59;;;;;;;23.65;18.70;;;;;;;13.42;44.63;96200.53;4987832;28;20519;-65
2021/10/10 08:41:30;;;;;;;24.92;19.15;;;;;;;13.59;44.80;96203.41;4989459;28;20026;-65
2021/10/10 08:43:57;;;;;;;29.02;18.35;;;;;;;13.73;44.69;96206.88;4944870;28;20039;-68
2021/10/10 08:46:24;;;;;;;29.45;18.30;;;;;;;13.37;45.43;96204.09;4963863;28;20039;-66
2021/10/10 08:48:53;;;;;;;26.95;19.08;;;;;;;13.63;44.86;96198.28;4968386;28;20046;-67
2021/10/10 08:51:20;;;;;;;27.55;17.88;;;;;;;13.52;44.68;96185.09;4968832;28;20050;-65
2021/10/10 08:53:47;;;;;;;22.63;17.40;;;;;;;13.67;44.97;96205.41;4983006;28;20349;-68
2021/10/10 08:56:13;;;;;;;28.35;19.15;;;;;;;13.72;44.38;96189.25;4970370;28;20580;-65
2021/10/10 08:58:42;;;;;;;26.02;17.60;;;;;;;13.86;44.31;96213.31;4967400;28;20053;-67
2021/10/10 09:01:16;;;;;;;24.25;17.60;;;;;;;14.04;44.26;96208.94;4968231;28;20043;-63
2021/10/10 09:03:49;;;;;;;25.92;18.50;;;;;;;13.79;44.23;96203.00;4967964;28;20041;-63
2021/10/10 09:06:15;;;;;;;24.52;18.45;;;;;;;13.49;44.74;96191.03;4967141;28;20035;-65
2021/10/10 09:08:40;;;;;;;24.20;17.50;;;;;;;13.85;44.17;96202.91;4967916;28;20279;-66
2021/10/10 09:11:06;;;;;;;24.65;17.80;;;;;;;13.93;44.26;96199.56;4970227;28;20037;-63
2021/10/10 09:13:34;;;;;;;27.40;18.42;;;;;;;13.86;44.55;96199.94;4980028;23;20074;-78
2021/10/10 09:15:59;;;;;;;26.30;16.85;;;;;;;13.84;44.33;96198.66;4967703;28;20043;-65
2021/10/10 09:18:51;;;;;;;26.77;18.05;;;;;;;12.95;45.63;96195.19;4968304;28;20035;-70
2021/10/10 09:21:27;;;;;;;23.45;17.77;;;;;;;12.93;45.82;96177.84;4968222;28;20034;-66
2021/10/10 09:23:55;;;;;;;24.70;19.25;;;;;;;13.51;45.40;96194.22;4967996;28;20494;-68
2021/10/10 09:26:21;;;;;;;26.10;18.42;;;;;;;13.78;45.03;96189.94;4970531;28;20481;-73
2021/10/10 09:28:48;;;;;;;23.25;17.52;;;;;;;14.14;44.47;96191.88;4967414;28;20047;-75
2021/10/10 09:31:14;;;;;;;26.52;18.20;;;;;;;14.35;44.20;96181.53;4954139;28;20036;-77
2021/10/10 09:33:54;;;;;;;33.28;20.08;;;;;;;13.90;44.56;96194.78;4957607;28;20405;-72
2021/10/10 09:36:24;;;;;;;31.50;20.08;;;;;;;14.40;44.50;96200.94;4968601;28;20581;-68
2021/10/10 09:41:33;;;;;;;27.35;19.73;;;;;;;14.55;44.00;96184.56;4970460;28;20110;-68
2021/10/10 09:44:08;;;;;;;26.48;18.65;;;;;;;14.53;43.94;96154.59;4967545;28;20450;-67
2021/10/10 09:46:34;;;;;;;26.65;19.38;;;;;;;14.87;43.99;96189.97;4974813;28;20038;-68
2021/10/10 09:48:59;;;;;;;31.55;19.40;;;;;;;14.94;43.53;96196.47;4982833;28;20073;-68
2021/10/10 09:51:29;;;;;;;30.67;20.17;;;;;;;14.98;42.83;96186.72;4991708;28;20092;-67
2021/10/10 09:54:00;;;;;;;29.60;20.27;;;;;;;15.14;42.88;96191.72;4991264;28;20092;-68
2021/10/10 09:56:25;;;;;;;26.50;20.30;;;;;;;15.07;42.84;96176.88;4993801;28;20084;-66
2021/10/10 09:58:50;;;;;;;24.83;19.20;;;;;;;15.13;42.91;96188.25;4973575;28;20544;-68
2021/10/10 10:01:19;;;;;;;28.95;20.30;;;;;;;14.76;44.30;96197.47;4971980;28;20058;-71
2021/10/10 10:04:13;;;;;;;29.92;20.02;;;;;;;15.29;43.52;96202.03;4971981;28;20035;-70
2021/10/10 10:06:41;;;;;;;29.40;21.60;;;;;;;15.37;43.24;96192.47;4962871;28;20040;-73
2021/10/10 10:09:10;;;;;;;28.95;20.05;;;;;;;15.51;42.88;96199.31;4957264;28;20030;-67
2021/10/10 10:11:42;;;;;;;33.42;20.60;;;;;;;15.49;42.58;96192.66;4972168;28;20134;-68
2021/10/10 10:14:10;;;;;;;27.93;19.97;;;;;;;15.55;42.28;96194.91;4973136;28;20550;-68
2021/10/10 10:16:48;;;;;;;29.95;21.02;;;;;;;15.09;42.61;96195.31;4972334;28;20278;-73
2021/10/10 10:19:22;;;;;;;26.63;20.45;;;;;;;15.59;42.48;96195.88;4971601;28;20400;-70
2021/10/10 10:21:51;;;;;;;33.17;21.75;;;;;;;15.59;42.56;96190.50;4971772;28;20039;-70
2021/10/10 10:24:18;;;;;;;30.92;21.00;;;;;;;15.76;42.23;96194.38;4970673;28;20043;-75
2021/10/10 10:26:43;;;;;;;31.90;21.05;;;;;;;15.70;41.61;96172.28;4970442;28;20469;-71
2021/10/10 10:29:18;;;;;;;34.33;20.95;;;;;;;15.90;41.62;96195.06;4971807;28;20030;-70
2021/10/10 10:31:46;;;;;;;28.15;20.98;;;;;;;15.91;41.83;96188.56;4971474;28;20090;-69
2021/10/10 10:34:24;;;;;;;31.67;21.73;;;;;;;15.76;42.40;96191.69;4971212;28;20043;-72
2021/10/10 10:36:52;;;;;;;32.83;21.40;;;;;;;15.81;41.82;96188.88;4971755;28;20469;-72
2021/10/10 10:39:41;;;;;;;32.47;20.65;;;;;;;16.13;41.72;96190.38;4971221;28;20097;-73
2021/10/10 10:42:11;;;;;;;32.65;21.40;;;;;;;16.09;41.53;96192.09;4968379;28;20038;-71
2021/10/10 10:44:45;;;;;;;30.23;20.98;;;;;;;16.19;41.57;96189.13;4969218;28;20015;-73
2021/10/10 10:47:16;;;;;;;33.08;21.58;;;;;;;16.31;41.70;96189.28;4974541;28;20019;-69
2021/10/10 10:49:50;;;;;;;60.42;33.42;;;;;;;16.07;41.31;96192.44;4970030;28;20122;-69
2021/10/10 10:52:24;;;;;;;31.67;22.77;;;;;;;16.17;41.27;96193.22;4970210;28;20109;-72
2021/10/10 10:54:55;;;;;;;27.10;21.02;;;;;;;16.27;40.80;96187.53;4970213;28;20042;-69
2021/10/10 10:57:41;;;;;;;27.20;20.55;;;;;;;16.34;41.13;96177.13;4970367;28;20497;-71
2021/10/10 11:00:12;;;;;;;31.73;22.25;;;;;;;16.49;41.10;96179.34;4970394;28;20054;-69
2021/10/10 11:03:01;;;;;;;30.73;21.80;;;;;;;16.54;40.97;96189.94;4986062;28;20073;-69
2021/10/10 11:05:55;;;;;;;36.03;22.45;;;;;;;16.29;40.86;96202.25;4991447;28;20058;-71
2021/10/10 11:08:27;;;;;;;25.77;19.55;;;;;;;16.61;40.98;96186.78;4990626;28;20046;-69
2021/10/10 11:11:04;;;;;;;26.27;18.55;;;;;;;16.74;40.51;96193.13;4990103;28;20034;-68
2021/10/10 11:13:45;;;;;;;26.48;18.92;;;;;;;16.80;40.37;96183.78;4977136;28;20038;-70
2021/10/10 11:16:28;;;;;;;31.25;21.25;;;;;;;16.55;40.08;96174.63;4970860;28;20647;-69
2021/10/10 11:18:56;;;;;;;30.50;20.60;;;;;;;16.66;40.41;96172.41;4970066;28;20100;-69
2021/10/10 11:21:25;;;;;;;29.42;19.48;;;;;;;16.15;40.75;96176.63;4968820;28;20463;-69
2021/10/10 11:23:56;;;;;;;26.48;19.42;;;;;;;16.52;40.88;96173.34;4968284;28;20142;-69
2021/10/10 11:26:23;;;;;;;30.15;20.15;;;;;;;16.82;40.94;96168.91;4970490;28;20038;-68